Time;durP1;ratioP1;P1;durP2;ratioP2;P2;SDS_P1;SDS_P2;PMS_P1;PMS_P2;Temp;Humidity;BMP_temperature;BMP_pressure;BME280_temperature;BME280_humidity;BME280_pressure;Samples;Min_cycle;Max_cycle;Signal;HPM_P1;HPM_P2
2024/02/28 00:00:54;;;;;;;7.38;5.35;;;;;;;18.25;38.27;101909.75;5001315;28;20033;-70
2024/02/28 00:03:19;;;;;;;7.00;4.93;;;;;;;18.36;38.18;101927.50;4999932;28;20041;-71
2024/02/28 00:05:45;;;;;;;7.05;4.90;;;;;;;18.40;38.48;101939.56;5000702;28;20409;-71
2024/02/28 00:08:11;;;;;;;6.82;5.07;;;;;;;18.33;38.28;101925.94;5001359;28;20044;-71
2024/02/28 00:10:36;;;;;;;9.18;5.03;;;;;;;18.37;38.38;101932.69;5001057;28;20041;-71
2024/02/28 00:13:01;;;;;;;6.90;5.18;;;;;;;18.33;38.34;101930.38;5000735;28;20030;-70
2024/02/28 00:15:27;;;;;;;7.00;5.20;;;;;;;18.35;38.23;101941.66;5001147;28;20352;-71
2024/02/28 00:17:53;;;;;;;8.10;5.45;;;;;;;18.20;38.02;101920.59;4999983;28;20081;-71
2024/02/28 00:20:18;;;;;;;7.55;5.45;;;;;;;18.30;38.18;101945.44;4997846;28;20034;-71
2024/02/28 00:22:44;;;;;;;8.00;5.38;;;;;;;18.21;38.01;101921.44;4983096;28;20048;-70
2024/02/28 00:25:11;;;;;;;7.43;5.28;;;;;;;18.16;37.94;101907.72;5000235;28;20032;-71
2024/02/28 00:27:36;;;;;;;8.10;5.15;;;;;;;18.24;38.09;101923.88;4999364;28;20034;-70
2024/02/28 00:30:06;;;;;;;7.47;5.18;;;;;;;18.15;38.09;101906.00;5000526;28;20041;-72
2024/02/28 00:32:31;;;;;;;7.43;4.85;;;;;;;18.19;38.16;101912.78;4999554;28;20026;-71
2024/02/28 00:34:57;;;;;;;7.72;5.57;;;;;;;18.21;38.00;101911.72;4998631;28;20080;-71
2024/02/28 00:37:22;;;;;;;7.20;5.13;;;;;;;18.20;38.12;101910.06;5000858;28;20076;-71
2024/02/28 00:39:47;;;;;;;7.25;5.13;;;;;;;18.18;38.05;101911.91;4998528;28;20037;-71
2024/02/28 00:42:13;;;;;;;6.05;4.85;;;;;;;18.19;38.18;101912.78;5000579;28;20085;-71
2024/02/28 00:44:38;;;;;;;6.93;5.00;;;;;;;18.19;38.01;101916.25;4999385;28;20041;-71
2024/02/28 00:47:03;;;;;;;6.55;5.18;;;;;;;18.00;37.98;101895.50;4999966;28;20117;-71
2024/02/28 00:49:29;;;;;;;7.30;5.25;;;;;;;18.09;38.34;101909.91;4999906;28;21020;-71
2024/02/28 00:51:54;;;;;;;7.90;5.15;;;;;;;18.12;38.30;101913.19;4999715;28;20116;-71
2024/02/28 00:54:21;;;;;;;7.17;5.07;;;;;;;18.09;38.15;101905.47;4982242;28;20037;-71
2024/02/28 00:56:46;;;;;;;7.10;5.32;;;;;;;18.10;37.96;101906.28;4999991;28;20263;-71
2024/02/28 00:59:12;;;;;;;6.90;4.85;;;;;;;18.12;37.95;101918.47;4999201;28;20057;-71
2024/02/28 01:01:38;;;;;;;8.48;4.88;;;;;;;18.04;38.17;101901.41;4997064;28;20034;-71
2024/02/28 01:04:03;;;;;;;8.00;5.20;;;;;;;18.09;37.72;101916.00;4999337;28;20095;-71
2024/02/28 01:06:28;;;;;;;8.75;6.10;;;;;;;18.09;38.07;101913.38;5000080;28;20042;-71
2024/02/28 01:08:53;;;;;;;7.38;5.38;;;;;;;18.05;37.84;101903.13;4981657;28;20037;-71
2024/02/28 01:11:19;;;;;;;7.25;5.20;;;;;;;18.10;37.82;101919.50;4999111;28;20041;-71
2024/02/28 01:13:44;;;;;;;9.40;4.88;;;;;;;17.90;37.72;101881.22;4999387;28;20514;-71
2024/02/28 01:16:09;;;;;;;6.28;4.95;;;;;;;18.04;37.62;101904.06;4998224;28;20053;-71
2024/02/28 01:18:35;;;;;;;7.35;5.22;;;;;;;18.07;37.98;101902.09;4982261;28;20056;-71
2024/02/28 01:21:00;;;;;;;6.95;5.13;;;;;;;18.02;37.63;101887.47;4999248;28;20045;-71
2024/02/28 01:23:25;;;;;;;7.10;4.85;;;;;;;18.02;37.65;101896.22;4997585;28;20034;-71
2024/02/28 01:25:50;;;;;;;7.53;4.95;;;;;;;17.99;37.70;101885.03;4998498;28;20068;-71
2024/02/28 01:28:16;;;;;;;7.55;5.25;;;;;;;18.00;37.98;101892.84;4999388;28;20904;-71
2024/02/28 01:30:41;;;;;;;7.13;4.85;;;;;;;18.00;37.84;101889.38;4995810;28;20026;-71
2024/02/28 01:33:06;;;;;;;6.53;4.75;;;;;;;18.00;37.67;101892.84;4998540;28;20948;-71
2024/02/28 01:35:31;;;;;;;6.63;5.00;;;;;;;18.00;37.92;101895.50;4998919;28;20030;-71
2024/02/28 01:37:57;;;;;;;6.53;4.55;;;;;;;17.98;37.59;101897.41;4997769;28;20494;-71
2024/02/28 01:40:22;;;;;;;6.72;4.82;;;;;;;18.02;37.96;101911.22;4998442;28;20034;-71
2024/02/28 01:42:47;;;;;;;6.40;4.82;;;;;;;17.91;37.76;101907.50;4998602;28;20057;-71
2024/02/28 01:45:14;;;;;;;7.60;5.25;;;;;;;17.98;37.77;101915.84;4997377;28;20467;-71
2024/02/28 01:47:41;;;;;;;7.80;5.15;;;;;;;17.88;37.86;101902.41;4999763;28;20081;-71
2024/02/28 01:50:07;;;;;;;7.05;4.57;;;;;;;17.98;37.66;101921.13;4996360;28;20030;-71
2024/02/28 01:52:33;;;;;;;6.70;4.72;;;;;;;17.93;37.50;101912.66;4981781;28;20080;-71
2024/02/28 01:54:59;;;;;;;6.25;4.70;;;;;;;17.97;37.62;101918.59;4998048;28;20029;-71
2024/02/28 01:57:24;;;;;;;6.88;4.60;;;;;;;17.86;37.49;101898.97;4997198;28;20038;-71
2024/02/28 01:59:50;;;;;;;6.80;4.72;;;;;;;17.82;37.62;101889.59;4998123;28;20030;-70
2024/02/28 02:02:15;;;;;;;6.68;4.80;;;;;;;17.94;37.47;101915.22;4998047;28;20044;-71
2024/02/28 02:04:40;;;;;;;6.63;4.63;;;;;;;17.87;37.37;101911.22;4998586;28;20034;-71
2024/02/28 02:07:06;;;;;;;7.55;4.47;;;;;;;17.81;37.33;101906.34;4998536;28;20041;-72
2024/02/28 02:09:34;;;;;;;6.25;4.28;;;;;;;17.79;37.46;101902.13;4999311;28;20040;-71
2024/02/28 02:11:59;;;;;;;6.22;4.40;;;;;;;17.90;37.35;101929.53;4997604;28;20041;-72
2024/02/28 02:14:25;;;;;;;7.07;5.10;;;;;;;17.77;37.26;101900.41;4996002;28;20041;-71
2024/02/28 02:16:50;;;;;;;6.82;4.47;;;;;;;17.79;37.15;101910.88;4996795;28;20026;-72
2024/02/28 02:19:16;;;;;;;6.15;4.35;;;;;;;17.69;37.20;101896.56;4981757;28;20538;-72
2024/02/28 02:21:52;;;;;;;6.40;4.55;;;;;;;17.75;37.43;101904.94;4998149;28;20053;-71
2024/02/28 02:24:17;;;;;;;6.10;3.88;;;;;;;17.76;37.26;101911.91;4999799;28;20061;-71
2024/02/28 02:26:45;;;;;;;6.20;4.45;;;;;;;17.83;37.19;101916.78;4980682;28;20157;-71
2024/02/28 02:29:11;;;;;;;7.72;4.90;;;;;;;17.85;37.15;101912.25;4998691;28;20029;-72
2024/02/28 02:31:36;;;;;;;6.25;4.22;;;;;;;17.75;37.31;101906.72;4998329;28;20030;-71
2024/02/28 02:34:01;;;;;;;6.03;4.68;;;;;;;17.79;37.30;101917.94;4995771;28;20065;-71
2024/02/28 02:36:26;;;;;;;7.10;4.65;;;;;;;17.70;37.29;101907.00;4997830;28;20487;-71
2024/02/28 02:38:52;;;;;;;5.93;4.40;;;;;;;17.82;37.29;101923.03;4997252;28;20049;-72
2024/02/28 02:41:18;;;;;;;6.13;4.53;;;;;;;17.61;37.23;101894.44;4997604;28;20034;-71
2024/02/28 02:43:43;;;;;;;6.68;4.20;;;;;;;17.70;37.34;101914.06;4998144;28;20067;-71
2024/02/28 02:46:08;;;;;;;6.85;4.70;;;;;;;17.76;37.52;101926.88;4998397;28;20038;-72
2024/02/28 02:48:34;;;;;;;7.50;4.40;;;;;;;17.69;37.18;101918.50;4997246;28;20038;-71
2024/02/28 02:50:59;;;;;;;6.13;4.40;;;;;;;17.77;37.40;101931.22;4998954;28;20034;-71
2024/02/28 02:53:24;;;;;;;6.03;4.30;;;;;;;17.66;37.46;101918.69;4997773;28;20038;-71
2024/02/28 02:55:49;;;;;;;6.88;4.65;;;;;;;17.74;37.42;101934.88;4998030;28;20424;-71
2024/02/28 02:58:15;;;;;;;7.55;4.50;;;;;;;17.73;37.39;101934.97;4997428;28;20038;-71
2024/02/28 03:00:40;;;;;;;6.28;4.38;;;;;;;17.73;37.79;101932.34;4997730;28;20042;-71
2024/02/28 03:03:05;;;;;;;7.45;4.63;;;;;;;17.71;37.43;101929.81;4994962;28;20037;-71
2024/02/28 03:05:31;;;;;;;7.97;4.97;;;;;;;17.63;37.65;101915.41;4996747;28;20029;-71
2024/02/28 03:07:56;;;;;;;7.82;4.88;;;;;;;17.60;37.57;101911.16;4996778;28;20543;-71
2024/02/28 03:10:21;;;;;;;7.22;4.45;;;;;;;17.52;37.60;101897.63;4997221;28;20913;-71
2024/02/28 03:12:46;;;;;;;8.68;4.40;;;;;;;17.66;37.74;101917.88;4996879;28;20084;-72
2024/02/28 03:15:12;;;;;;;7.35;4.85;;;;;;;17.68;37.75;101926.50;4997421;28;20645;-71
2024/02/28 03:17:37;;;;;;;6.72;4.80;;;;;;;17.57;37.95;101917.47;4997737;28;20049;-71
2024/02/28 03:20:03;;;;;;;7.38;4.80;;;;;;;17.52;37.74;101914.28;4980706;28;20096;-71
2024/02/28 03:22:28;;;;;;;7.45;4.45;;;;;;;17.65;37.75;101937.25;4980836;28;20034;-71
2024/02/28 03:24:54;;;;;;;7.40;4.80;;;;;;;17.67;38.01;101938.00;4998056;28;20037;-71
2024/02/28 03:27:19;;;;;;;5.93;4.50;;;;;;;17.54;38.10;101919.47;4998427;28;20376;-71
2024/02/28 03:29:44;;;;;;;6.28;4.18;;;;;;;17.65;38.34;101934.63;4995794;28;20038;-71
2024/02/28 03:32:09;;;;;;;5.65;3.97;;;;;;;17.63;38.39;101932.06;4995360;28;20038;-71
2024/02/28 03:34:35;;;;;;;8.05;4.20;;;;;;;17.65;38.17;101932.81;4996164;28;20427;-71
2024/02/28 03:37:00;;;;;;;6.60;4.43;;;;;;;17.64;38.50;101932.91;4996940;28;20910;-72
2024/02/28 03:39:25;;;;;;;9.07;4.30;;;;;;;17.64;38.32;101932.91;4998362;28;20026;-71
2024/02/28 03:41:51;;;;;;;7.07;4.32;;;;;;;17.48;38.08;101901.38;4996236;28;20065;-71
2024/02/28 03:44:16;;;;;;;7.20;4.35;;;;;;;17.56;38.28;101914.94;4998183;28;20041;-71
2024/02/28 03:46:41;;;;;;;6.85;4.65;;;;;;;17.60;38.14;101924.34;4998392;28;20399;-71
2024/02/28 03:49:07;;;;;;;7.03;4.20;;;;;;;17.43;37.94;101896.38;4980334;28;20216;-71
2024/02/28 03:51:32;;;;;;;7.13;4.18;;;;;;;17.48;37.98;101904.00;4980605;28;20259;-71
2024/02/28 03:53:57;;;;;;;7.57;4.47;;;;;;;17.52;37.95;101916.06;4998185;28;20068;-71
2024/02/28 03:56:26;;;;;;;6.43;3.83;;;;;;;17.50;38.06;101910.03;5002003;28;20422;-71
2024/02/28 03:58:52;;;;;;;7.20;4.88;;;;;;;17.59;38.09;101925.28;5000217;28;20107;-71
2024/02/28 04:01:17;;;;;;;7.57;4.22;;;;;;;17.48;37.84;101901.38;4999138;28;20026;-72
2024/02/28 04:03:43;;;;;;;6.55;3.95;;;;;;;17.46;37.91;101906.75;4998868;28;20096;-71
2024/02/28 04:06:09;;;;;;;6.47;4.28;;;;;;;17.44;38.12;101902.53;4999216;28;20531;-71
2024/02/28 04:08:34;;;;;;;6.10;4.43;;;;;;;17.47;37.73;101907.63;5001365;28;20472;-71
2024/02/28 04:10:59;;;;;;;7.30;4.32;;;;;;;17.44;37.53;101911.28;4999974;28;20096;-71
2024/02/28 04:13:25;;;;;;;7.50;4.00;;;;;;;17.53;37.76;101931.78;5001310;28;20454;-71
2024/02/28 04:15:50;;;;;;;6.85;4.43;;;;;;;17.52;37.95;101926.63;5000666;28;20021;-71
2024/02/28 04:18:15;;;;;;;6.82;4.50;;;;;;;17.51;37.64;101930.19;5000957;28;20069;-71
2024/02/28 04:20:41;;;;;;;6.20;4.63;;;;;;;17.46;37.66;101921.72;5001308;28;20729;-71
2024/02/28 04:23:06;;;;;;;6.47;4.15;;;;;;;17.43;37.68;101925.38;5001287;28;20069;-71
2024/02/28 04:25:31;;;;;;;7.85;4.35;;;;;;;17.51;37.48;101936.28;5000593;28;20028;-71
2024/02/28 04:27:57;;;;;;;6.65;4.30;;;;;;;17.39;37.56;101919.47;5000486;28;20438;-71
2024/02/28 04:30:22;;;;;;;6.82;4.22;;;;;;;17.41;37.54;101922.00;5000471;28;20030;-71
2024/02/28 04:32:47;;;;;;;7.80;4.40;;;;;;;17.48;37.57;101930.38;5000313;28;20077;-71
2024/02/28 04:35:15;;;;;;;5.95;4.40;;;;;;;17.38;37.49;101923.03;5000690;28;20124;-71
2024/02/28 04:37:40;;;;;;;7.55;4.65;;;;;;;17.50;37.43;101933.75;5000832;28;20030;-71
2024/02/28 04:40:06;;;;;;;5.60;4.00;;;;;;;17.45;37.29;101926.16;4982724;28;20030;-71
2024/02/28 04:42:31;;;;;;;7.18;4.20;;;;;;;17.36;37.61;101911.72;5001033;28;20084;-71
2024/02/28 04:44:57;;;;;;;5.53;3.83;;;;;;;17.36;37.69;101909.09;5001023;28;20037;-71
2024/02/28 04:47:23;;;;;;;6.85;4.10;;;;;;;17.34;37.35;101908.34;4998646;28;20034;-71
2024/02/28 04:49:48;;;;;;;7.20;4.00;;;;;;;17.34;37.33;101908.34;5000601;28;20132;-71
2024/02/28 04:52:13;;;;;;;6.35;4.10;;;;;;;17.44;37.13;101931.53;5000974;28;20038;-71
2024/02/28 04:54:40;;;;;;;6.28;4.20;;;;;;;17.42;37.32;101934.25;4999709;28;20037;-71
2024/02/28 04:57:05;;;;;;;6.80;4.20;;;;;;;17.30;37.37;101914.75;5000610;28;20554;-71
2024/02/28 04:59:31;;;;;;;6.10;3.70;;;;;;;17.40;37.05;101942.25;5000291;28;20034;-71
2024/02/28 05:01:57;;;;;;;6.40;3.92;;;;;;;17.33;37.39;101933.00;4997004;28;20037;-71
2024/02/28 05:04:23;;;;;;;6.70;4.20;;;;;;;17.31;37.24;101928.78;4999061;28;20088;-71
2024/02/28 05:06:48;;;;;;;6.20;4.43;;;;;;;17.39;37.12;101947.59;4998074;28;20036;-71
2024/02/28 05:09:14;;;;;;;6.65;4.00;;;;;;;17.28;36.97;101929.81;4998731;28;20033;-71
2024/02/28 05:11:39;;;;;;;5.82;4.03;;;;;;;17.32;37.13;101948.91;4999978;28;20076;-71
2024/02/28 05:14:04;;;;;;;7.25;4.05;;;;;;;17.39;37.19;101960.78;4998962;28;20963;-71
2024/02/28 05:16:30;;;;;;;6.07;4.18;;;;;;;17.38;37.19;101961.72;5000027;28;20040;-71
2024/02/28 05:18:55;;;;;;;6.85;4.10;;;;;;;17.28;36.84;101948.25;4998420;28;20046;-71
2024/02/28 05:21:20;;;;;;;5.22;3.63;;;;;;;17.30;37.26;101959.53;5000013;28;20522;-71
2024/02/28 05:23:46;;;;;;;6.85;3.67;;;;;;;17.37;37.15;101976.69;4999831;28;20056;-71
2024/02/28 05:26:11;;;;;;;6.55;4.05;;;;;;;17.36;36.98;101979.41;4998482;28;20034;-71
2024/02/28 05:28:36;;;;;;;5.90;3.63;;;;;;;17.31;36.87;101976.22;4998121;28;20081;-71
2024/02/28 05:31:22;;;;;;;6.65;4.50;;;;;;;17.33;36.82;101983.06;4998333;28;20030;-71
2024/02/28 05:33:48;;;;;;;5.85;3.92;;;;;;;17.34;37.04;101981.25;4997893;28;20026;-71
2024/02/28 05:36:13;;;;;;;6.40;3.92;;;;;;;17.23;36.75;101960.84;4982150;28;20047;-71
2024/02/28 05:38:39;;;;;;;7.15;4.20;;;;;;;17.23;36.99;101959.06;4999546;28;20030;-71
2024/02/28 05:41:04;;;;;;;5.60;3.60;;;;;;;17.34;37.10;101982.13;4998261;28;20034;-71
2024/02/28 05:43:29;;;;;;;6.10;3.50;;;;;;;17.32;37.66;101973.47;4999161;28;20495;-71
2024/02/28 05:45:55;;;;;;;5.97;3.63;;;;;;;17.35;37.64;101978.53;4996239;28;20120;-71
2024/02/28 05:48:20;;;;;;;5.88;3.30;;;;;;;17.40;38.30;101984.41;4999562;28;20480;-71
2024/02/28 05:50:46;;;;;;;5.00;2.97;;;;;;;17.39;38.36;101980.06;4998492;28;20030;-71
2024/02/28 05:53:11;;;;;;;4.93;2.63;;;;;;;17.43;38.74;101975.44;4999252;28;20400;-71
2024/02/28 05:55:36;;;;;;;4.93;2.78;;;;;;;17.53;38.87;101995.06;4999811;28;20034;-71
2024/02/28 05:58:02;;;;;;;5.32;2.55;;;;;;;17.55;39.18;101985.25;4999388;28;20041;-71
2024/02/28 06:00:28;;;;;;;5.38;2.70;;;;;;;17.50;39.13;101968.00;5000388;28;20033;-72
2024/02/28 06:02:53;;;;;;;3.70;2.30;;;;;;;17.50;39.50;101962.75;4998446;28;20041;-71
2024/02/28 06:05:19;;;;;;;5.20;2.65;;;;;;;17.62;39.40;101980.44;4999312;28;20045;-72
2024/02/28 06:07:44;;;;;;;5.68;2.60;;;;;;;17.58;39.88;101965.78;4999754;28;20029;-72
2024/02/28 06:10:10;;;;;;;4.85;2.60;;;;;;;17.74;39.83;101986.78;4981589;28;20494;-72
2024/02/28 06:12:35;;;;;;;4.40;2.80;;;;;;;17.77;39.63;101984.78;4999839;28;20498;-72
2024/02/28 06:15:01;;;;;;;4.60;2.55;;;;;;;17.80;39.98;101986.41;4999216;28;20038;-72
2024/02/28 06:17:26;;;;;;;5.78;2.88;;;;;;;17.70;39.88;101969.44;4999002;28;20057;-72
2024/02/28 06:19:51;;;;;;;4.85;2.92;;;;;;;17.83;40.08;101990.63;4999318;28;20052;-72
2024/02/28 06:22:18;;;;;;;4.90;2.92;;;;;;;17.75;39.97;101970.88;4982401;28;20034;-72
2024/02/28 06:24:45;;;;;;;5.00;2.70;;;;;;;17.80;39.83;101981.13;4999065;28;20034;-72
2024/02/28 06:27:12;;;;;;;4.60;2.42;;;;;;;17.84;40.10;101987.88;4998964;28;20029;-72
2024/02/28 06:29:37;;;;;;;4.95;2.83;;;;;;;17.82;40.31;101981.03;5000009;28;20034;-72
2024/02/28 06:32:03;;;;;;;5.25;2.63;;;;;;;17.78;40.34;101980.34;4980922;28;20030;-72
2024/02/28 06:34:29;;;;;;;5.80;2.60;;;;;;;17.84;40.35;101984.41;4998788;28;20069;-72
2024/02/28 06:36:54;;;;;;;5.57;2.80;;;;;;;17.92;40.53;101998.00;4999554;28;20499;-73
2024/02/28 06:39:19;;;;;;;6.72;2.80;;;;;;;17.93;40.73;102004.97;4996101;28;20684;-73
2024/02/28 06:41:45;;;;;;;4.70;2.80;;;;;;;17.93;40.67;101997.91;4998937;28;20121;-72
2024/02/28 06:44:11;;;;;;;4.63;2.65;;;;;;;17.87;40.77;102000.88;4997194;28;20540;-72
2024/02/28 06:46:36;;;;;;;5.00;2.67;;;;;;;17.94;40.53;102010.16;4998816;28;20077;-72
2024/02/28 06:49:02;;;;;;;4.60;2.75;;;;;;;17.86;40.34;101999.19;4998749;28;20068;-72
2024/02/28 06:51:28;;;;;;;5.38;2.90;;;;;;;17.95;40.76;102011.00;4998763;28;20496;-73
2024/02/28 06:53:53;;;;;;;5.30;2.80;;;;;;;17.97;40.70;102014.38;4998593;28;20448;-73
2024/02/28 06:56:18;;;;;;;6.82;3.17;;;;;;;18.02;40.61;102025.47;4999657;28;20519;-73
2024/02/28 06:58:44;;;;;;;5.82;3.40;;;;;;;17.94;40.45;102010.16;4998241;28;20041;-72
2024/02/28 07:01:09;;;;;;;5.65;3.20;;;;;;;17.97;40.51;102022.28;4997395;28;20034;-73
2024/02/28 07:03:34;;;;;;;5.93;3.05;;;;;;;17.97;40.73;102026.72;4997185;28;20130;-72
2024/02/28 07:06:00;;;;;;;6.40;3.58;;;;;;;17.94;41.15;102026.00;4998387;28;20088;-71
2024/02/28 07:08:25;;;;;;;6.50;3.95;;;;;;;17.95;41.04;102029.47;4998426;28;20120;-71
2024/02/28 07:10:53;;;;;;;5.55;3.05;;;;;;;17.93;41.26;102016.38;4997264;28;20883;-72
2024/02/28 07:13:20;;;;;;;5.72;2.83;;;;;;;18.05;41.42;102046.41;4981734;28;20117;-72
2024/02/28 07:15:45;;;;;;;6.15;3.67;;;;;;;17.99;41.54;102038.03;4997824;28;20290;-73
2024/02/28 07:18:10;;;;;;;7.20;3.65;;;;;;;18.08;41.37;102058.56;4998628;28;20053;-72
2024/02/28 07:20:35;;;;;;;5.95;3.95;;;;;;;18.07;41.71;102051.56;4997908;28;20104;-72
2024/02/28 07:23:01;;;;;;;5.40;3.10;;;;;;;17.91;41.72;102025.31;4998325;28;20469;-72
2024/02/28 07:25:26;;;;;;;5.50;3.03;;;;;;;17.99;41.88;102038.91;4999016;28;20034;-73
2024/02/28 07:27:51;;;;;;;5.32;3.22;;;;;;;18.00;41.45;102037.09;4997434;28;20420;-73
2024/02/28 07:30:17;;;;;;;7.32;3.28;;;;;;;18.02;41.73;102038.69;5000091;28;20125;-72
2024/02/28 07:32:42;;;;;;;6.10;2.92;;;;;;;18.00;41.96;102037.94;5002228;28;20030;-72
2024/02/28 07:35:07;;;;;;;6.25;3.47;;;;;;;18.08;42.10;102051.50;4997111;28;20121;-75
2024/02/28 07:37:33;;;;;;;5.43;3.45;;;;;;;18.01;42.20;102046.69;4982746;28;20034;-72
2024/02/28 07:39:58;;;;;;;5.13;3.28;;;;;;;18.11;41.95;102061.84;4996175;28;20081;-72
2024/02/28 07:42:23;;;;;;;6.10;3.50;;;;;;;18.09;41.46;102063.75;5000843;28;20038;-72
2024/02/28 07:44:53;;;;;;;6.20;3.35;;;;;;;18.07;41.90;102057.72;5001642;28;20033;-72
2024/02/28 07:47:18;;;;;;;8.23;3.78;;;;;;;18.07;41.87;102054.22;5001715;28;20129;-73
2024/02/28 07:49:44;;;;;;;6.78;3.40;;;;;;;18.00;41.63;102040.56;5000882;28;20121;-72
2024/02/28 07:52:09;;;;;;;6.03;3.38;;;;;;;18.03;42.10;102053.56;5002277;28;20026;-72
2024/02/28 07:54:36;;;;;;;6.70;3.55;;;;;;;18.11;42.23;102075.03;5002440;28;20491;-72
2024/02/28 07:57:01;;;;;;;6.30;3.00;;;;;;;17.92;42.05;102046.31;5001305;28;20061;-72
2024/02/28 07:59:26;;;;;;;5.38;3.08;;;;;;;18.13;42.05;102085.50;5002240;28;20527;-72
2024/02/28 08:01:52;;;;;;;7.20;3.72;;;;;;;18.10;42.23;102089.19;4999985;28;20178;-72
2024/02/28 08:04:17;;;;;;;6.47;3.47;;;;;;;18.15;42.48;102095.97;4997010;28;20030;-72
2024/02/28 08:06:43;;;;;;;6.13;3.42;;;;;;;18.02;42.27;102074.75;5001218;28;20030;-71
2024/02/28 08:09:08;;;;;;;10.30;3.63;;;;;;;18.06;42.47;102087.69;4984188;28;20302;-72
2024/02/28 08:11:33;;;;;;;5.30;3.00;;;;;;;18.06;42.33;102086.84;5001193;28;20495;-72
2024/02/28 08:13:58;;;;;;;5.70;3.33;;;;;;;17.98;42.52;102070.63;5001798;28;20033;-72
2024/02/28 08:16:24;;;;;;;6.88;3.53;;;;;;;18.04;42.54;102086.94;5001699;28;20053;-72
2024/02/28 08:18:49;;;;;;;6.93;3.97;;;;;;;18.15;42.70;102103.88;5000951;28;20050;-72
2024/02/28 08:21:14;;;;;;;6.40;3.10;;;;;;;17.97;43.00;102076.84;5001970;28;20064;-72
2024/02/28 08:23:40;;;;;;;6.53;3.58;;;;;;;18.18;43.02;102116.88;5001438;28;20050;-71
2024/02/28 08:26:05;;;;;;;6.82;3.72;;;;;;;18.04;42.79;102091.34;4999784;28;20072;-72
2024/02/28 08:28:30;;;;;;;7.50;3.67;;;;;;;18.17;42.99;102121.31;5001036;28;20120;-72
2024/02/28 08:30:55;;;;;;;6.80;3.70;;;;;;;18.07;42.74;102112.25;5001202;28;20049;-73
2024/02/28 08:33:21;;;;;;;6.15;3.17;;;;;;;18.09;43.01;102118.31;5001501;28;20511;-72
2024/02/28 08:35:46;;;;;;;5.65;3.33;;;;;;;18.05;43.13;102111.50;5000835;28;20026;-72
2024/02/28 08:38:12;;;;;;;7.18;3.75;;;;;;;17.99;43.05;102101.31;4982778;28;20127;-72
2024/02/28 08:40:37;;;;;;;8.07;3.88;;;;;;;18.13;42.77;102123.31;5001151;28;20472;-72
2024/02/28 08:43:02;;;;;;;7.15;3.42;;;;;;;18.18;43.00;102136.19;5000408;28;20062;-72
2024/02/28 08:45:28;;;;;;;7.65;3.30;;;;;;;18.15;43.44;102122.34;5000735;28;20056;-68
2024/02/28 08:47:53;;;;;;;8.35;3.90;;;;;;;18.07;43.26;102110.50;4995227;28;20298;-72
2024/02/28 08:50:18;;;;;;;6.70;3.70;;;;;;;18.19;43.06;102124.72;4998589;28;20042;-71
2024/02/28 08:52:44;;;;;;;8.15;4.10;;;;;;;18.21;43.10;102127.25;4999125;28;20460;-72
2024/02/28 08:55:09;;;;;;;11.50;3.72;;;;;;;18.23;43.35;102128.00;5000829;28;20121;-68
2024/02/28 08:57:34;;;;;;;7.80;4.07;;;;;;;18.21;43.39;102130.72;4976990;28;20681;-73
2024/02/28 09:00:00;;;;;;;7.28;3.72;;;;;;;18.22;43.19;102128.97;4999090;28;20065;-70
2024/02/28 09:02:25;;;;;;;5.90;3.65;;;;;;;18.17;43.41;102110.78;4999378;28;20128;-72
2024/02/28 09:04:52;;;;;;;7.10;3.30;;;;;;;18.13;43.50;102120.66;4998220;28;20120;-72
2024/02/28 09:07:21;;;;;;;7.68;3.58;;;;;;;18.15;43.35;102117.94;4999228;28;20026;-72
2024/02/28 09:09:46;;;;;;;6.38;3.75;;;;;;;18.21;43.48;102132.53;5000320;28;20034;-71
2024/02/28 09:12:12;;;;;;;6.28;3.67;;;;;;;18.09;43.13;102110.41;4999812;28;20539;-71
2024/02/28 09:14:38;;;;;;;8.68;3.97;;;;;;;18.16;43.13;102121.41;4999649;28;20030;-72
2024/02/28 09:17:04;;;;;;;9.63;3.85;;;;;;;18.23;43.16;102131.50;5000726;28;20396;-71
2024/02/28 09:19:30;;;;;;;6.68;3.35;;;;;;;18.15;43.48;102110.03;4983509;28;20072;-71
2024/02/28 09:21:55;;;;;;;7.28;3.40;;;;;;;18.11;43.33;102105.88;4999525;28;20376;-72
2024/02/28 09:24:20;;;;;;;7.53;3.92;;;;;;;18.13;43.49;102109.25;5001364;28;20114;-72
2024/02/28 09:26:45;;;;;;;6.78;4.05;;;;;;;18.22;43.26;102121.03;5000522;28;20041;-71
2024/02/28 09:29:11;;;;;;;9.68;3.85;;;;;;;18.10;43.28;102099.75;4998823;28;20467;-71
2024/02/28 09:31:36;;;;;;;8.88;3.75;;;;;;;18.21;43.59;102111.41;5000355;28;20380;-71
2024/02/28 09:34:07;;;;;;;8.05;3.92;;;;;;;18.10;43.42;102094.47;4995039;28;20044;-73
2024/02/28 09:36:32;;;;;;;9.30;4.55;;;;;;;18.17;43.79;102096.75;4999467;28;20034;-74
2024/02/28 09:38:57;;;;;;;7.28;3.95;;;;;;;18.14;43.78;102097.75;4998975;28;20262;-73
2024/02/28 09:41:26;;;;;;;9.00;3.63;;;;;;;18.27;43.46;102121.59;4998712;28;20447;-73
2024/02/28 09:43:52;;;;;;;8.90;4.18;;;;;;;18.18;43.97;102103.69;4998223;28;20034;-72
2024/02/28 09:46:17;;;;;;;7.50;4.00;;;;;;;18.27;43.78;102117.16;4999657;28;20084;-70
2024/02/28 09:48:48;;;;;;;8.60;4.07;;;;;;;18.23;44.02;102107.75;4998863;28;20042;-74
2024/02/28 09:51:14;;;;;;;8.45;3.60;;;;;;;18.25;44.14;102112.94;4999266;28;20037;-68
2024/02/28 09:53:40;;;;;;;9.88;3.80;;;;;;;18.24;43.94;102108.59;4998792;28;20158;-71
2024/02/28 09:56:06;;;;;;;8.07;3.90;;;;;;;18.20;44.07;102105.31;4998511;28;20550;-73
2024/02/28 09:58:32;;;;;;;9.50;3.88;;;;;;;18.17;44.04;102094.94;4999837;28;20040;-71
2024/02/28 10:01:02;;;;;;;6.63;3.50;;;;;;;18.21;44.19;102099.06;4998908;28;20033;-71
2024/02/28 10:03:30;;;;;;;8.50;4.22;;;;;;;18.33;43.90;102117.75;4996233;28;20068;-71
2024/02/28 10:05:55;;;;;;;8.10;3.70;;;;;;;18.25;43.88;102103.22;4998856;28;20037;-71
2024/02/28 10:08:20;;;;;;;7.85;3.80;;;;;;;18.20;43.90;102097.38;4998224;28;20034;-71
2024/02/28 10:10:47;;;;;;;5.70;3.05;;;;;;;18.27;43.84;102113.69;4998976;28;20602;-72
2024/02/28 10:13:13;;;;;;;7.30;3.60;;;;;;;18.19;43.55;102100.13;5000092;28;20601;-71
2024/02/28 10:15:38;;;;;;;7.78;3.67;;;;;;;18.28;43.54;102116.22;5000107;28;20066;-71
2024/02/28 10:18:04;;;;;;;6.40;3.28;;;;;;;18.28;43.62;102118.88;4999105;28;20140;-71
2024/02/28 10:20:32;;;;;;;9.88;3.58;;;;;;;18.20;43.36;102104.44;4981094;28;20987;-71
2024/02/28 10:22:58;;;;;;;13.15;3.78;;;;;;;18.29;43.43;102120.56;4992504;28;20041;-73
2024/02/28 10:25:23;;;;;;;8.07;3.38;;;;;;;18.31;43.34;102120.47;4997734;28;20377;-71
2024/02/28 10:27:49;;;;;;;10.73;3.67;;;;;;;18.19;43.39;102102.75;4998431;28;20130;-70
2024/02/28 10:30:16;;;;;;;8.73;3.45;;;;;;;18.15;43.44;102096.84;4998157;28;20066;-70
2024/02/28 10:32:49;;;;;;;7.28;3.80;;;;;;;18.22;42.97;102111.31;4996747;28;20365;-70
2024/02/28 10:35:19;;;;;;;8.45;3.33;;;;;;;18.22;43.04;102111.31;4999680;28;20030;-70
2024/02/28 10:37:45;;;;;;;7.82;3.78;;;;;;;18.20;42.93;102105.31;4992532;28;20611;-73
2024/02/28 10:40:13;;;;;;;7.47;3.17;;;;;;;18.25;42.94;102111.13;4997942;28;20443;-72
2024/02/28 10:42:41;;;;;;;9.18;3.17;;;;;;;18.28;43.16;102115.38;4998248;28;20037;-71
2024/02/28 10:45:10;;;;;;;7.00;3.58;;;;;;;18.25;42.81;102110.31;4996935;28;20060;-71
2024/02/28 10:47:38;;;;;;;6.85;3.40;;;;;;;18.30;43.02;102110.84;4998766;28;20775;-71
2024/02/28 10:50:04;;;;;;;8.98;3.05;;;;;;;18.28;42.92;102110.13;4997928;28;20034;-70
2024/02/28 10:52:33;;;;;;;7.60;3.20;;;;;;;18.23;43.13;102097.19;4997766;28;20168;-72
2024/02/28 10:55:00;;;;;;;6.03;3.47;;;;;;;18.28;42.97;102103.03;4997904;28;20033;-73
2024/02/28 10:57:26;;;;;;;6.95;2.90;;;;;;;18.33;42.85;102100.09;4980818;28;20399;-70
2024/02/28 10:59:53;;;;;;;7.15;3.13;;;;;;;18.15;42.82;102067.81;4996762;28;20048;-70
2024/02/28 11:02:19;;;;;;;9.80;3.22;;;;;;;18.17;42.57;102062.44;4994008;28;20538;-74
2024/02/28 11:04:44;;;;;;;8.60;4.20;;;;;;;18.26;42.73;102069.75;4998250;28;20033;-70
2024/02/28 11:07:09;;;;;;;8.52;4.05;;;;;;;18.31;42.80;102083.53;4983780;28;20034;-70
2024/02/28 11:09:35;;;;;;;7.35;3.72;;;;;;;18.34;42.84;102088.63;5001575;28;20034;-73
2024/02/28 11:12:00;;;;;;;7.93;3.47;;;;;;;18.28;42.66;102075.81;5000123;28;20363;-72
2024/02/28 11:14:26;;;;;;;6.20;3.22;;;;;;;18.24;42.92;102067.22;4981642;28;20037;-71
2024/02/28 11:17:05;;;;;;;6.82;3.25;;;;;;;18.26;42.84;102077.66;5001417;28;20461;-71